Time;durP1;ratioP1;P1;durP2;ratioP2;P2;SDS_P1;SDS_P2;PMS_P1;PMS_P2;Temp;Humidity;BMP_temperature;BMP_pressure;BME280_temperature;BME280_humidity;BME280_pressure;Samples;Min_cycle;Max_cycle;Signal;HPM_P1;HPM_P2
2022/06/08 00:00:33;;;;;;;8.95;7.10;;;16.90;99.90;;;;;;5037322;28;20230;-71
2022/06/08 00:03:11;;;;;;;9.75;6.95;;;17.00;99.90;;;;;;5040315;28;20229;-72
2022/06/08 00:05:37;;;;;;;7.63;6.80;;;16.90;99.90;;;;;;5042593;28;20176;-73
2022/06/08 00:08:03;;;;;;;7.97;7.05;;;16.90;99.90;;;;;;5041888;28;20215;-73
2022/06/08 00:10:29;;;;;;;7.80;6.95;;;16.90;99.90;;;;;;5042240;28;20250;-73
2022/06/08 00:12:55;;;;;;;7.68;6.88;;;16.80;99.90;;;;;;5040338;28;20161;-72
2022/06/08 00:15:21;;;;;;;9.05;7.20;;;16.70;99.90;;;;;;5040059;28;20168;-73
2022/06/08 00:17:47;;;;;;;7.97;6.80;;;16.90;99.90;;;;;;5037979;28;20169;-71
2022/06/08 00:20:14;;;;;;;7.75;6.78;;;16.70;99.90;;;;;;5039482;28;20211;-72
2022/06/08 00:22:39;;;;;;;10.15;7.10;;;16.70;99.90;;;;;;5046059;28;20188;-74
2022/06/08 00:25:06;;;;;;;9.98;6.63;;;16.80;99.90;;;;;;5045680;28;20173;-72
2022/06/08 00:27:32;;;;;;;6.85;6.15;;;16.70;99.90;;;;;;5048891;28;20165;-72
2022/06/08 00:29:59;;;;;;;7.35;6.53;;;16.60;99.90;;;;;;5052230;28;20328;-72
2022/06/08 00:32:25;;;;;;;8.82;7.15;;;16.50;99.90;;;;;;5039796;28;20181;-73
2022/06/08 00:34:51;;;;;;;8.20;7.18;;;16.60;99.90;;;;;;5036769;28;20585;-73
2022/06/08 00:37:16;;;;;;;8.02;7.13;;;16.50;99.90;;;;;;5036340;28;20342;-71
2022/06/08 00:39:42;;;;;;;8.43;7.07;;;16.50;99.90;;;;;;5036133;28;20263;-72
2022/06/08 00:42:10;;;;;;;9.60;6.78;;;16.40;99.90;;;;;;5036445;28;20663;-73
2022/06/08 00:44:42;;;;;;;8.30;6.30;;;16.20;99.90;;;;;;5035855;28;20172;-72
2022/06/08 00:47:11;;;;;;;7.95;6.75;;;16.30;99.90;;;;;;5035865;28;20236;-71
2022/06/08 00:50:01;;;;;;;9.00;7.53;;;16.30;99.90;;;;;;5036170;28;20249;-72
2022/06/08 00:52:28;;;;;;;8.05;7.25;;;16.20;99.90;;;;;;5034289;28;20395;-73
2022/06/08 00:54:59;;;;;;;8.70;7.38;;;16.10;99.90;;;;;;5036162;28;20248;-72
2022/06/08 00:57:39;;;;;;;7.63;6.78;;;16.10;99.90;;;;;;5036107;28;20165;-72
2022/06/08 01:00:12;;;;;;;7.53;6.50;;;16.20;99.90;;;;;;5035997;28;20169;-73
2022/06/08 01:02:38;;;;;;;9.27;7.13;;;16.10;99.90;;;;;;5036152;28;20177;-72
2022/06/08 01:05:49;;;;;;;7.50;6.65;;;16.00;99.90;;;;;;5035455;28;20174;-72
2022/06/08 01:08:26;;;;;;;10.68;7.88;;;16.10;99.90;;;;;;5027528;28;20195;-72
2022/06/08 01:10:55;;;;;;;9.05;7.13;;;16.00;99.90;;;;;;5036202;28;20188;-72
2022/06/08 01:13:21;;;;;;;8.98;6.60;;;16.10;99.90;;;;;;5035666;28;20172;-72
2022/06/08 01:15:47;;;;;;;9.67;7.30;;;16.10;99.90;;;;;;5036127;28;20176;-72
2022/06/08 01:18:13;;;;;;;7.97;7.03;;;15.90;99.90;;;;;;5036125;28;20173;-72
2022/06/08 01:20:51;;;;;;;8.73;7.38;;;15.90;99.90;;;;;;5041374;28;20227;-72
2022/06/08 01:23:18;;;;;;;8.13;7.03;;;15.90;99.90;;;;;;5046119;28;20172;-74
2022/06/08 01:26:14;;;;;;;9.93;8.00;;;15.80;99.90;;;;;;5049263;28;20237;-74
2022/06/08 01:28:50;;;;;;;9.60;8.00;;;15.80;99.90;;;;;;5049134;28;20279;-71
2022/06/08 01:31:50;;;;;;;9.95;7.53;;;15.80;99.90;;;;;;5038155;28;20279;-74
2022/06/08 01:34:47;;;;;;;8.25;7.03;;;15.90;99.90;;;;;;5034180;28;20193;-70
2022/06/08 01:37:33;;;;;;;8.07;7.17;;;15.70;99.90;;;;;;5035042;28;20586;-71
2022/06/08 01:40:33;;;;;;;12.97;7.37;;;15.90;99.90;;;;;;5035065;28;20395;-72
2022/06/08 01:43:07;;;;;;;15.13;7.57;;;15.70;99.90;;;;;;5035250;28;20189;-72
2022/06/08 01:45:43;;;;;;;8.13;7.33;;;15.60;99.90;;;;;;5035197;28;20172;-72
2022/06/08 01:48:56;;;;;;;8.97;7.63;;;15.60;99.90;;;;;;5035147;28;20160;-72
2022/06/08 01:51:38;;;;;;;11.77;7.43;;;15.70;99.90;;;;;;5035094;28;20683;-72
2022/06/08 01:54:21;;;;;;;10.27;7.17;;;15.70;99.90;;;;;;5034173;28;20198;-72
2022/06/08 01:57:24;;;;;;;9.50;7.20;;;15.70;99.90;;;;;;5034867;28;20247;-71
2022/06/08 02:00:04;;;;;;;7.82;7.00;;;15.70;99.90;;;;;;5033740;28;20168;-72
2022/06/08 02:03:00;;;;;;;10.83;7.07;;;15.60;99.90;;;;;;5034759;28;20233;-71
2022/06/08 02:05:26;;;;;;;8.60;6.77;;;15.40;99.90;;;;;;5034826;28;20226;-72
2022/06/08 02:08:09;;;;;;;9.57;7.20;;;15.50;99.90;;;;;;5034610;28;20594;-71
2022/06/08 02:10:55;;;;;;;7.83;7.00;;;15.50;99.90;;;;;;5034281;28;20192;-71
2022/06/08 02:13:45;;;;;;;9.17;7.37;;;15.40;99.90;;;;;;5037775;28;20160;-72
2022/06/08 02:16:22;;;;;;;8.00;7.20;;;15.40;99.90;;;;;;5045909;28;20172;-72
2022/06/08 02:18:56;;;;;;;9.73;6.80;;;15.20;99.90;;;;;;5034319;28;20268;-71
2022/06/08 02:21:34;;;;;;;8.37;6.70;;;15.30;99.90;;;;;;5033709;28;20179;-72
2022/06/08 02:24:17;;;;;;;9.13;7.90;;;15.50;99.90;;;;;;5033060;28;20184;-71
2022/06/08 02:26:49;;;;;;;9.73;7.30;;;15.40;99.90;;;;;;5033617;28;20553;-71
2022/06/08 02:29:21;;;;;;;12.93;7.53;;;15.40;99.90;;;;;;5041680;28;20173;-71
2022/06/08 02:31:53;;;;;;;10.47;7.30;;;15.40;99.90;;;;;;5036139;28;20244;-71
2022/06/08 02:34:36;;;;;;;9.70;7.40;;;15.30;99.90;;;;;;5034170;28;20620;-71
2022/06/08 02:37:04;;;;;;;9.10;7.37;;;15.30;99.90;;;;;;5034224;28;20173;-73
2022/06/08 02:39:55;;;;;;;7.93;6.90;;;15.20;99.90;;;;;;5034268;28;20169;-71
2022/06/08 02:42:27;;;;;;;9.43;7.20;;;15.40;99.90;;;;;;5034259;28;20706;-73
2022/06/08 02:45:19;;;;;;;7.63;6.67;;;15.10;99.90;;;;;;5034441;28;20160;-72
2022/06/08 02:47:48;;;;;;;8.57;7.47;;;15.10;99.90;;;;;;5033364;28;20238;-71
2022/06/08 02:50:20;;;;;;;9.60;6.83;;;15.10;99.90;;;;;;5033610;28;20197;-72
2022/06/08 02:52:47;;;;;;;8.87;7.93;;;15.10;99.90;;;;;;5033710;28;20161;-72
2022/06/08 02:55:25;;;;;;;8.27;6.70;;;15.10;99.90;;;;;;5033621;28;20199;-70
2022/06/08 02:58:01;;;;;;;8.73;7.43;;;15.10;99.90;;;;;;5033757;28;20235;-71
2022/06/08 03:00:38;;;;;;;8.13;6.27;;;14.90;99.90;;;;;;5033868;28;20251;-71
2022/06/08 03:03:12;;;;;;;8.53;7.03;;;14.90;99.90;;;;;;5033884;28;20301;-72
2022/06/08 03:05:42;;;;;;;9.77;7.70;;;15.00;99.90;;;;;;5033923;28;20165;-70
2022/06/08 03:08:16;;;;;;;10.43;7.13;;;15.00;99.90;;;;;;5034534;28;20171;-72
2022/06/08 03:10:45;;;;;;;8.73;7.43;;;14.90;99.90;;;;;;5033256;28;20203;-72
2022/06/08 03:13:18;;;;;;;9.67;7.67;;;14.90;99.90;;;;;;5033313;28;20234;-72
2022/06/08 03:15:52;;;;;;;8.70;7.47;;;14.80;99.90;;;;;;5033224;28;20215;-72
2022/06/08 03:18:18;;;;;;;9.00;7.37;;;14.80;99.90;;;;;;5033948;28;20171;-72
2022/06/08 03:20:44;;;;;;;8.93;7.33;;;14.80;99.90;;;;;;5033738;28;20563;-71
2022/06/08 03:23:09;;;;;;;10.40;7.40;;;14.90;99.90;;;;;;5033397;28;20585;-73
2022/06/08 03:25:36;;;;;;;8.07;6.97;;;14.80;99.90;;;;;;5034582;28;20179;-71
2022/06/08 03:28:01;;;;;;;8.03;7.13;;;14.80;99.90;;;;;;5034999;28;20207;-72
2022/06/08 03:30:28;;;;;;;10.20;7.40;;;15.00;99.90;;;;;;5034510;28;20231;-71
2022/06/08 03:32:53;;;;;;;9.37;7.30;;;15.00;99.90;;;;;;5033262;28;20230;-73
2022/06/08 03:35:19;;;;;;;9.50;7.63;;;14.70;99.90;;;;;;5034078;28;20172;-71
2022/06/08 03:37:45;;;;;;;10.73;7.20;;;14.70;99.90;;;;;;5034068;28;20168;-72
2022/06/08 03:40:12;;;;;;;9.87;7.87;;;14.90;99.90;;;;;;5033790;28;20247;-72
2022/06/08 03:42:38;;;;;;;8.90;7.40;;;14.80;99.90;;;;;;5037034;28;20249;-73
2022/06/08 03:45:05;;;;;;;8.37;7.40;;;14.60;99.90;;;;;;5037570;28;20180;-71
2022/06/08 03:47:38;;;;;;;10.37;7.90;;;14.80;99.90;;;;;;5040480;28;20472;-72
2022/06/08 03:50:07;;;;;;;10.33;7.53;;;14.90;99.90;;;;;;5041249;28;20201;-74
2022/06/08 03:52:37;;;;;;;10.20;7.87;;;15.00;99.90;;;;;;5039189;28;20180;-72
2022/06/08 03:55:06;;;;;;;10.57;7.90;;;14.80;99.90;;;;;;5039066;28;20220;-74
2022/06/08 03:57:33;;;;;;;11.87;8.50;;;14.90;99.90;;;;;;5039996;28;20153;-71
2022/06/08 04:00:00;;;;;;;11.07;8.20;;;15.00;99.90;;;;;;5036793;28;20198;-71
2022/06/08 04:02:27;;;;;;;11.00;7.70;;;14.90;99.90;;;;;;5033635;28;20176;-72
2022/06/08 04:04:52;;;;;;;11.67;8.77;;;14.90;99.90;;;;;;5033850;28;20264;-72
2022/06/08 04:07:18;;;;;;;9.47;7.83;;;15.00;99.90;;;;;;5034287;28;20197;-70
2022/06/08 04:09:44;;;;;;;10.33;7.97;;;15.00;99.90;;;;;;5033102;28;20161;-72
2022/06/08 04:12:10;;;;;;;10.73;8.00;;;14.90;99.90;;;;;;5032726;28;20593;-71
2022/06/08 04:14:36;;;;;;;9.60;7.90;;;15.00;99.90;;;;;;5033348;28;20177;-71
2022/06/08 04:17:01;;;;;;;10.90;8.10;;;14.90;99.90;;;;;;5032724;28;20500;-71
2022/06/08 04:19:28;;;;;;;10.47;8.47;;;14.90;99.90;;;;;;5033287;28;20175;-71
2022/06/08 04:21:54;;;;;;;9.73;8.33;;;14.80;99.90;;;;;;5033649;28;20543;-71
2022/06/08 04:24:22;;;;;;;9.40;7.63;;;14.90;99.90;;;;;;5033762;28;20212;-72
2022/06/08 04:26:48;;;;;;;10.40;8.00;;;15.00;99.90;;;;;;5036010;28;20593;-71
2022/06/08 04:29:14;;;;;;;10.33;7.83;;;15.10;99.90;;;;;;5038006;28;20244;-72
2022/06/08 04:31:41;;;;;;;10.50;7.53;;;15.10;99.90;;;;;;5037414;28;20573;-71
2022/06/08 04:34:09;;;;;;;12.03;7.77;;;15.30;99.90;;;;;;5036307;28;20207;-73
2022/06/08 04:36:35;;;;;;;10.77;8.30;;;15.10;99.90;;;;;;5042382;28;20275;-74
2022/06/08 04:39:03;;;;;;;12.50;7.60;;;15.20;99.90;;;;;;5044309;28;20176;-71
2022/06/08 04:41:28;;;;;;;9.07;7.40;;;15.30;99.90;;;;;;5045108;28;20589;-73
2022/06/08 04:43:55;;;;;;;11.37;7.60;;;15.40;99.90;;;;;;5039289;28;20157;-73
2022/06/08 04:46:20;;;;;;;10.00;8.17;;;15.50;99.90;;;;;;5038486;28;20528;-73
2022/06/08 04:48:47;;;;;;;9.23;7.13;;;15.50;99.90;;;;;;5042274;28;20165;-73
2022/06/08 04:51:15;;;;;;;8.00;6.77;;;15.60;99.90;;;;;;5050995;28;20213;-73
2022/06/08 04:53:42;;;;;;;11.37;7.70;;;15.80;99.90;;;;;;5048740;28;20197;-71
2022/06/08 04:56:09;;;;;;;7.77;6.40;;;15.90;99.90;;;;;;5045389;28;20597;-73
2022/06/08 04:58:34;;;;;;;7.93;6.60;;;15.90;99.90;;;;;;5039632;28;20164;-74
2022/06/08 05:01:01;;;;;;;6.83;6.10;;;16.00;99.90;;;;;;5036777;28;20264;-72
2022/06/08 05:03:27;;;;;;;8.53;6.37;;;15.90;99.90;;;;;;5036277;28;20221;-71
2022/06/08 05:05:53;;;;;;;7.10;5.70;;;16.10;99.90;;;;;;5035019;28;20181;-73
2022/06/08 05:08:20;;;;;;;7.97;6.53;;;16.00;99.90;;;;;;5036856;28;20493;-70
2022/06/08 05:10:48;;;;;;;6.50;5.50;;;16.00;99.90;;;;;;5036157;28;20228;-70
2022/06/08 05:13:14;;;;;;;7.83;5.67;;;16.10;99.90;;;;;;5035655;28;20234;-72
2022/06/08 05:15:42;;;;;;;6.75;5.50;;;16.10;99.90;;;;;;5036196;28;20166;-72
2022/06/08 05:18:09;;;;;;;7.03;5.30;;;16.10;99.90;;;;;;5035421;28;20274;-72
2022/06/08 05:20:37;;;;;;;7.22;5.97;;;16.30;99.90;;;;;;5036013;28;20180;-71
2022/06/08 05:23:04;;;;;;;7.28;6.10;;;16.30;99.90;;;;;;5036654;28;20183;-73
2022/06/08 05:25:37;;;;;;;7.95;6.40;;;16.20;99.90;;;;;;5036326;28;20181;-72
2022/06/08 05:28:05;;;;;;;7.30;5.75;;;16.50;99.90;;;;;;5036775;28;20172;-72
2022/06/08 05:30:32;;;;;;;6.35;5.15;;;16.60;99.90;;;;;;5045269;28;20207;-75
2022/06/08 05:32:58;;;;;;;7.63;5.97;;;16.70;99.90;;;;;;5043344;28;20193;-73
2022/06/08 05:35:24;;;;;;;7.55;5.50;;;16.70;99.90;;;;;;5043358;28;20165;-73
2022/06/08 05:37:50;;;;;;;6.28;5.65;;;16.80;99.90;;;;;;5041536;28;20187;-72
2022/06/08 05:40:16;;;;;;;5.45;4.88;;;16.90;99.90;;;;;;5042259;28;20191;-72
2022/06/08 05:42:42;;;;;;;8.38;5.72;;;17.00;99.90;;;;;;5042904;28;20169;-71
2022/06/08 05:45:11;;;;;;;5.75;5.13;;;16.90;99.90;;;;;;5040434;28;20176;-71
2022/06/08 05:47:37;;;;;;;7.32;5.05;;;16.90;99.90;;;;;;5038958;28;20181;-73
2022/06/08 05:50:03;;;;;;;5.72;4.63;;;17.20;99.90;;;;;;5039064;28;20216;-72
2022/06/08 05:52:29;;;;;;;5.30;4.80;;;17.20;99.90;;;;;;5036943;28;20210;-73
2022/06/08 05:54:55;;;;;;;6.63;4.75;;;17.30;99.90;;;;;;5037267;28;20608;-74
2022/06/08 05:57:21;;;;;;;7.70;4.32;;;17.40;99.90;;;;;;5037304;28;20173;-74
2022/06/08 05:59:46;;;;;;;5.95;4.68;;;17.40;99.90;;;;;;5036852;28;20318;-73
2022/06/08 06:02:14;;;;;;;5.72;4.82;;;17.50;99.90;;;;;;5039837;28;20509;-72
2022/06/08 06:04:41;;;;;;;4.32;3.92;;;17.80;99.90;;;;;;5037438;28;20216;-72
2022/06/08 06:07:06;;;;;;;4.55;3.97;;;18.00;99.90;;;;;;5038985;28;20220;-73
2022/06/08 06:09:32;;;;;;;4.32;3.88;;;18.20;99.90;;;;;;5040406;28;20291;-72
2022/06/08 06:11:58;;;;;;;7.32;3.72;;;18.20;99.90;;;;;;5035794;28;20522;-74
2022/06/08 06:14:24;;;;;;;3.85;3.17;;;18.30;99.90;;;;;;5034578;28;20185;-72
2022/06/08 06:16:49;;;;;;;7.47;3.47;;;18.30;99.90;;;;;;5034605;28;20215;-72
2022/06/08 06:19:15;;;;;;;3.90;3.50;;;18.50;99.90;;;;;;5034800;28;20240;-73
2022/06/08 06:21:41;;;;;;;5.13;3.33;;;18.50;99.90;;;;;;5034842;28;20168;-73
2022/06/08 06:24:06;;;;;;;4.03;3.15;;;18.30;99.90;;;;;;5034520;28;20166;-73
2022/06/08 06:26:32;;;;;;;4.97;3.75;;;18.50;99.90;;;;;;5034754;28;20165;-73
2022/06/08 06:28:58;;;;;;;4.40;3.20;;;18.80;99.90;;;;;;5034114;28;20164;-73
2022/06/08 06:31:25;;;;;;;4.63;2.92;;;18.70;99.90;;;;;;5034246;28;20200;-72
2022/06/08 06:33:50;;;;;;;4.57;2.92;;;18.90;99.90;;;;;;5033754;28;20593;-71
2022/06/08 06:36:16;;;;;;;3.63;3.30;;;18.90;99.90;;;;;;5034292;28;20214;-73
2022/06/08 06:38:42;;;;;;;6.22;3.42;;;19.10;99.90;;;;;;5034199;28;20165;-74
2022/06/08 06:41:09;;;;;;;6.47;3.65;;;19.20;99.90;;;;;;5033413;28;20203;-73
2022/06/08 06:43:35;;;;;;;4.10;3.13;;;19.20;99.90;;;;;;5032824;28;20184;-72
2022/06/08 06:46:02;;;;;;;4.60;3.38;;;19.40;99.90;;;;;;5034126;28;20165;-75
2022/06/08 06:48:28;;;;;;;3.78;3.17;;;19.40;99.90;;;;;;5034465;28;20169;-72
2022/06/08 06:50:54;;;;;;;4.97;2.83;;;19.50;99.90;;;;;;5034194;28;20207;-72
2022/06/08 06:53:20;;;;;;;5.90;3.08;;;19.60;99.90;;;;;;5033317;28;20271;-73
2022/06/08 06:55:45;;;;;;;4.80;3.03;;;19.90;99.90;;;;;;5033888;28;20215;-72
2022/06/08 06:58:11;;;;;;;4.40;3.15;;;20.10;99.90;;;;;;5033986;28;20268;-73
2022/06/08 07:00:36;;;;;;;2.85;2.47;;;20.10;99.90;;;;;;5034155;28;20172;-73
2022/06/08 07:03:02;;;;;;;3.83;3.20;;;20.30;99.90;;;;;;5034116;28;20224;-73
2022/06/08 07:05:33;;;;;;;5.05;3.00;;;20.40;99.90;;;;;;5033613;28;20171;-74
2022/06/08 07:07:59;;;;;;;5.90;2.80;;;20.40;99.90;;;;;;5034382;28;20373;-71
2022/06/08 07:10:25;;;;;;;3.97;2.75;;;20.40;99.90;;;;;;5034272;28;20196;-75
2022/06/08 07:12:51;;;;;;;3.35;2.75;;;20.40;99.90;;;;;;5034379;28;20176;-73
2022/06/08 07:15:18;;;;;;;3.65;2.35;;;20.50;99.90;;;;;;5040694;28;20621;-74
2022/06/08 07:17:44;;;;;;;9.95;4.22;;;20.60;99.90;;;;;;5047830;28;20157;-75
2022/06/08 07:20:10;;;;;;;3.03;2.70;;;20.90;99.90;;;;;;5048858;28;20187;-75
2022/06/08 07:22:36;;;;;;;2.67;2.20;;;21.10;99.90;;;;;;5043812;28;20255;-73
2022/06/08 07:25:03;;;;;;;4.65;2.20;;;21.30;99.90;;;;;;5050814;28;20225;-75
2022/06/08 07:27:29;;;;;;;2.55;2.35;;;21.40;99.90;;;;;;5035335;28;20157;-72
2022/06/08 07:29:55;;;;;;;2.70;2.20;;;21.30;99.90;;;;;;5034508;28;20482;-74
2022/06/08 07:32:20;;;;;;;2.50;2.30;;;21.20;99.90;;;;;;5032162;28;20598;-74
2022/06/08 07:34:46;;;;;;;2.70;1.83;;;21.40;99.90;;;;;;5033455;28;20205;-74
2022/06/08 07:37:12;;;;;;;2.38;1.85;;;21.60;99.90;;;;;;5033318;28;20223;-74
2022/06/08 07:39:39;;;;;;;4.90;2.60;;;21.60;99.90;;;;;;5033946;28;20180;-73
2022/06/08 07:42:05;;;;;;;2.58;2.10;;;21.60;99.90;;;;;;5033255;28;20199;-73
2022/06/08 07:44:31;;;;;;;2.92;2.30;;;21.70;99.90;;;;;;5033365;28;20172;-72
2022/06/08 07:46:56;;;;;;;3.75;1.80;;;21.70;99.90;;;;;;5033102;28;20506;-74
2022/06/08 07:49:49;;;;;;;2.42;1.70;;;22.00;99.90;;;;;;5033952;28;20198;-74
2022/06/08 07:52:20;;;;;;;4.03;1.75;;;22.10;99.90;;;;;;5033178;28;20223;-73
2022/06/08 07:54:47;;;;;;;2.20;1.50;;;22.10;99.90;;;;;;5034167;28;20164;-73
2022/06/08 07:57:25;;;;;;;1.63;1.52;;;22.20;99.90;;;;;;5036647;28;20177;-72
2022/06/08 07:59:51;;;;;;;8.60;1.90;;;22.00;99.90;;;;;;5035001;28;20156;-74
2022/06/08 08:02:17;;;;;;;1.50;1.10;;;22.10;99.90;;;;;;5037679;28;20185;-73
2022/06/08 08:04:44;;;;;;;7.93;2.53;;;22.10;99.90;;;;;;5035633;28;20239;-73
2022/06/08 08:07:11;;;;;;;4.18;1.30;;;22.60;99.90;;;;;;5037027;28;20156;-71
2022/06/08 08:09:37;;;;;;;5.85;1.25;;;22.80;99.90;;;;;;5036685;28;20180;-73
2022/06/08 08:12:03;;;;;;;1.90;1.45;;;22.90;99.90;;;;;;5038082;28;20199;-74
2022/06/08 08:14:33;;;;;;;1.95;1.30;;;22.90;99.90;;;;;;5037913;28;20245;-72
2022/06/08 08:16:59;;;;;;;1.95;1.40;;;23.10;99.90;;;;;;5037361;28;20168;-73
2022/06/08 08:19:25;;;;;;;1.40;1.30;;;22.80;99.90;;;;;;5036135;28;20184;-74
2022/06/08 08:21:51;;;;;;;1.35;1.20;;;22.80;99.90;;;;;;5039321;28;20204;-73
2022/06/08 08:24:18;;;;;;;1.25;1.15;;;22.90;99.90;;;;;;5048540;28;20184;-73
2022/06/08 08:26:46;;;;;;;2.45;1.20;;;23.10;99.90;;;;;;5045802;28;20179;-74
2022/06/08 08:29:13;;;;;;;2.80;1.40;;;23.30;99.90;;;;;;5047478;28;20196;-72
2022/06/08 08:31:39;;;;;;;1.33;1.23;;;22.60;99.90;;;;;;5045956;28;20204;-73
2022/06/08 08:34:04;;;;;;;2.95;1.20;;;22.60;99.90;;;;;;5047802;28;20299;-73
2022/06/08 08:36:30;;;;;;;2.15;1.15;;;23.00;99.90;;;;;;5040922;28;20238;-75
2022/06/08 08:38:57;;;;;;;1.08;1.08;;;23.10;99.90;;;;;;5036907;28;20168;-74
2022/06/08 08:44:47;;;;;;;2.22;1.15;;;23.30;99.90;;;;;;5037200;28;20236;-74
2022/06/08 08:47:35;;;;;;;2.03;1.20;;;23.30;99.90;;;;;;5036670;28;20192;-76
2022/06/08 08:50:22;;;;;;;1.30;1.20;;;23.00;99.90;;;;;;5036429;28;20488;-72
2022/06/08 08:53:15;;;;;;;1.30;1.20;;;23.20;99.90;;;;;;5036847;28;20270;-73
2022/06/08 08:55:56;;;;;;;2.33;1.02;;;23.20;99.90;;;;;;5036090;28;20187;-73
2022/06/08 08:58:28;;;;;;;1.15;1.05;;;22.80;99.90;;;;;;5036558;28;20161;-73
2022/06/08 09:00:59;;;;;;;1.30;1.20;;;22.60;99.90;;;;;;5036310;28;20226;-75
2022/06/08 09:03:40;;;;;;;2.28;1.40;;;22.30;99.90;;;;;;5043737;28;20239;-72
2022/06/08 09:06:13;;;;;;;1.23;1.13;;;22.00;99.90;;;;;;5050068;28;20157;-74
2022/06/08 09:08:43;;;;;;;1.20;1.05;;;22.20;99.90;;;;;;5052468;28;20165;-74
2022/06/08 09:11:23;;;;;;;1.15;1.05;;;22.90;99.90;;;;;;5053750;28;20197;-75
2022/06/08 09:13:48;;;;;;;1.20;1.10;;;23.20;99.90;;;;;;5041516;28;20260;-73
2022/06/08 09:16:38;;;;;;;1.45;1.20;;;22.90;99.90;;;;;;5038654;28;20196;-73
2022/06/08 09:19:25;;;;;;;1.70;1.10;;;22.80;99.90;;;;;;5036096;28;20168;-73
2022/06/08 09:21:54;;;;;;;1.73;1.25;;;22.60;99.90;;;;;;5036005;28;20161;-73
2022/06/08 09:24:30;;;;;;;1.17;1.08;;;22.50;99.90;;;;;;5035641;28;20175;-73
2022/06/08 09:27:16;;;;;;;1.05;1.05;;;22.40;99.90;;;;;;5036442;28;20202;-73
2022/06/08 09:29:47;;;;;;;2.22;2.08;;;22.20;99.90;;;;;;5035652;28;20188;-73
2022/06/08 09:32:59;;;;;;;1.30;1.10;;;22.10;99.90;;;;;;5036350;28;20457;-75
2022/06/08 09:35:34;;;;;;;1.67;1.10;;;22.00;99.90;;;;;;5017159;28;20620;-75
2022/06/08 09:38:12;;;;;;;1.75;1.10;;;21.90;99.90;;;;;;5036198;28;20172;-74
2022/06/08 09:41:24;;;;;;;1.17;1.08;;;21.80;99.90;;;;;;5035678;28;20165;-74
2022/06/08 09:44:04;;;;;;;1.55;1.38;;;21.70;99.90;;;;;;4996812;28;20182;-73
2022/06/08 09:52:45;;;;;;;3.42;1.13;;;21.30;99.90;;;;;;5006164;28;20220;-75
2022/06/08 09:55:32;;;;;;;1.30;1.10;;;21.30;99.90;;;;;;5007989;28;20217;-75
2022/06/08 09:58:25;;;;;;;1.30;1.20;;;21.30;99.90;;;;;;4998917;28;20178;-73
2022/06/08 10:00:59;;;;;;;2.03;1.30;;;21.40;99.90;;;;;;4993785;28;20200;-73
2022/06/08 10:03:36;;;;;;;2.60;1.48;;;21.60;99.90;;;;;;4993504;28;20789;-73
2022/06/08 10:06:26;;;;;;;3.05;1.55;;;21.80;99.90;;;;;;4977305;28;20245;-74
2022/06/08 10:09:01;;;;;;;1.60;1.50;;;21.90;99.90;;;;;;4993351;28;20194;-74
2022/06/08 10:11:42;;;;;;;1.42;1.33;;;22.00;99.90;;;;;;4993255;28;20213;-75
2022/06/08 10:14:16;;;;;;;1.52;1.20;;;22.00;99.90;;;;;;5006721;28;20267;-73
2022/06/08 10:16:50;;;;;;;1.63;1.30;;;22.10;99.90;;;;;;5035281;28;20286;-73
2022/06/08 10:19:32;;;;;;;1.67;1.45;;;22.10;99.90;;;;;;5034972;28;20169;-74
2022/06/08 10:22:01;;;;;;;1.48;1.30;;;22.40;99.90;;;;;;5034738;28;20179;-76
2022/06/08 10:24:34;;;;;;;1.33;1.23;;;22.40;99.90;;;;;;5034250;28;20873;-74
2022/06/08 10:27:19;;;;;;;1.20;1.10;;;22.30;99.90;;;;;;5034346;28;20566;-72
2022/06/08 10:30:29;;;;;;;3.92;1.10;;;22.20;99.90;;;;;;5034849;28;20161;-73
2022/06/08 10:33:16;;;;;;;1.58;1.30;;;22.10;99.90;;;;;;5034950;28;20181;-74
2022/06/08 10:35:48;;;;;;;1.52;1.40;;;22.10;99.90;;;;;;5034611;28;20499;-74
2022/06/08 10:38:27;;;;;;;1.85;1.40;;;22.10;99.90;;;;;;5035109;28;20161;-73
2022/06/08 10:40:58;;;;;;;1.45;1.35;;;22.10;99.90;;;;;;5034182;28;20156;-72
2022/06/08 10:43:30;;;;;;;3.00;1.70;;;22.20;99.90;;;;;;5034532;28;20165;-73
2022/06/08 10:46:05;;;;;;;4.70;1.30;;;22.20;99.90;;;;;;5034237;28;20180;-73
2022/06/08 10:48:43;;;;;;;6.93;3.05;;;22.20;99.90;;;;;;5033701;28;20221;-73
2022/06/08 10:51:09;;;;;;;1.40;1.30;;;22.20;99.90;;;;;;5034221;28;20197;-72
2022/06/08 10:56:27;;;;;;;5.60;1.60;;;22.40;99.90;;;;;;5034190;28;20265;-73
2022/06/08 10:58:54;;;;;;;1.70;1.58;;;22.60;99.90;;;;;;5032926;28;20616;-75
2022/06/08 11:01:32;;;;;;;2.58;1.65;;;22.70;99.90;;;;;;5034799;28;20199;-73
2022/06/08 11:03:59;;;;;;;1.45;1.25;;;23.00;99.90;;;;;;5038616;28;20228;-73
2022/06/08 11:06:53;;;;;;;1.73;1.30;;;23.10;99.90;;;;;;5038735;28;20204;-74
2022/06/08 11:09:48;;;;;;;4.80;1.40;;;23.00;99.90;;;;;;5041797;28;20555;-74
2022/06/08 11:12:14;;;;;;;3.17;1.63;;;23.00;99.90;;;;;;5033632;28;20220;-73
2022/06/08 11:14:52;;;;;;;1.40;1.30;;;23.60;99.90;;;;;;5036169;28;20168;-72
2022/06/08 11:17:35;;;;;;;1.40;1.30;;;24.30;99.90;;;;;;5033700;28;20185;-72
2022/06/08 11:20:12;;;;;;;1.05;1.00;;;24.70;99.90;;;;;;5034866;28;20176;-73
2022/06/08 11:22:48;;;;;;;2.45;1.38;;;24.70;99.90;;;;;;5033554;28;20160;-72
2022/06/08 11:25:26;;;;;;;1.33;1.17;;;24.80;99.90;;;;;;5033547;28;20156;-73
2022/06/08 11:28:29;;;;;;;1.52;1.20;;;25.00;99.90;;;;;;5032880;28;20567;-73
2022/06/08 11:30:59;;;;;;;2.28;1.35;;;25.40;99.90;;;;;;5034210;28;20215;-73
2022/06/08 11:33:56;;;;;;;3.55;1.42;;;25.60;99.90;;;;;;5033587;28;20510;-71
2022/06/08 11:36:43;;;;;;;1.33;1.23;;;25.00;99.90;;;;;;5032948;28;20240;-72
2022/06/08 11:39:29;;;;;;;1.63;1.52;;;25.30;99.00;;;;;;5033280;28;20660;-73
2022/06/08 11:42:22;;;;;;;1.45;1.35;;;25.30;99.80;;;;;;5033736;28;20208;-74
2022/06/08 11:45:06;;;;;;;1.63;1.50;;;25.40;99.90;;;;;;5034840;28;20210;-72
2022/06/08 11:47:43;;;;;;;3.00;1.58;;;25.50;98.40;;;;;;5040975;28;20165;-74
2022/06/08 11:50:19;;;;;;;1.60;1.50;;;25.50;96.10;;;;;;5045656;28;20171;-74
2022/06/08 11:52:47;;;;;;;1.75;1.60;;;25.80;96.20;;;;;;5046968;28;20624;-74
2022/06/08 11:55:23;;;;;;;1.85;1.58;;;26.00;95.20;;;;;;5042526;28;20198;-73
2022/06/08 11:57:54;;;;;;;1.70;1.60;;;26.00;93.10;;;;;;5033920;28;20177;-72
2022/06/08 12:00:51;;;;;;;1.77;1.67;;;25.80;92.40;;;;;;5033941;28;20161;-71
2022/06/08 12:03:16;;;;;;;1.60;1.50;;;25.20;96.00;;;;;;5033559;28;20232;-72
2022/06/08 12:05:53;;;;;;;2.10;1.95;;;24.90;96.90;;;;;;5033464;28;20199;-74
2022/06/08 12:08:45;;;;;;;2.85;2.10;;;25.10;96.10;;;;;;5033324;28;20161;-73
2022/06/08 12:11:17;;;;;;;2.08;1.77;;;25.90;94.00;;;;;;5033296;28;20204;-72
2022/06/08 12:14:13;;;;;;;3.58;1.70;;;26.10;93.60;;;;;;5033585;28;20169;-72
2022/06/08 12:16:56;;;;;;;4.40;2.03;;;26.50;92.30;;;;;;5031925;28;20173;-74
2022/06/08 12:19:25;;;;;;;1.63;1.52;;;26.80;90.10;;;;;;5033236;28;20561;-72
2022/06/08 12:22:10;;;;;;;1.63;1.52;;;26.50;91.60;;;;;;5033526;28;20262;-73
2022/06/08 12:24:35;;;;;;;5.82;3.30;;;25.60;92.00;;;;;;5033603;28;20169;-74
2022/06/08 12:27:20;;;;;;;2.10;1.60;;;25.30;94.70;;;;;;5033450;28;20491;-73
2022/06/08 12:29:56;;;;;;;5.13;4.00;;;25.20;96.00;;;;;;5032979;28;20165;-73
2022/06/08 12:32:33;;;;;;;1.60;1.50;;;25.10;96.30;;;;;;5033327;28;20266;-71
2022/06/08 12:35:05;;;;;;;2.72;1.52;;;25.00;95.70;;;;;;5032933;28;20598;-72
2022/06/08 12:37:38;;;;;;;1.73;1.60;;;25.20;95.30;;;;;;5033057;28;20613;-73
2022/06/08 12:40:15;;;;;;;2.15;1.70;;;25.30;96.70;;;;;;5033653;28;20197;-72
2022/06/08 12:42:51;;;;;;;2.15;1.95;;;25.00;96.30;;;;;;5033072;28;20169;-72
2022/06/08 12:45:46;;;;;;;2.92;2.13;;;25.10;99.90;;;;;;5032924;28;20165;-72
2022/06/08 12:48:42;;;;;;;4.40;2.03;;;25.00;98.20;;;;;;5034849;28;20192;-72
2022/06/08 12:51:20;;;;;;;2.88;1.92;;;24.90;98.90;;;;;;5036870;28;20201;-72
2022/06/08 12:53:46;;;;;;;2.47;2.03;;;24.60;99.20;;;;;;5036771;28;20171;-73
2022/06/08 12:56:12;;;;;;;1.83;1.70;;;24.40;99.90;;;;;;5036718;28;20245;-72
2022/06/08 12:58:37;;;;;;;3.60;1.88;;;24.40;99.90;;;;;;5036797;28;20632;-72
2022/06/08 13:01:04;;;;;;;2.90;1.90;;;24.40;99.90;;;;;;5035476;28;20569;-72
2022/06/08 13:03:30;;;;;;;3.72;1.77;;;24.40;99.90;;;;;;5036480;28;20224;-73
2022/06/08 13:05:57;;;;;;;2.75;1.67;;;24.20;99.90;;;;;;5036277;28;20183;-73
2022/06/08 13:08:26;;;;;;;2.33;1.98;;;24.20;99.90;;;;;;5036258;28;20161;-73
2022/06/08 13:10:55;;;;;;;1.88;1.77;;;24.10;99.90;;;;;;5035196;28;20200;-72
2022/06/08 13:13:23;;;;;;;2.38;1.73;;;24.10;99.90;;;;;;5037133;28;20502;-73
2022/06/08 13:15:49;;;;;;;7.53;1.80;;;24.00;99.90;;;;;;5036095;28;20157;-73
2022/06/08 13:18:19;;;;;;;1.88;1.67;;;24.00;99.90;;;;;;5036631;28;20153;-74
2022/06/08 13:20:46;;;;;;;8.10;2.00;;;23.90;99.90;;;;;;5036434;28;20172;-73
2022/06/08 13:23:13;;;;;;;3.65;2.92;;;23.80;99.90;;;;;;5036346;28;20615;-73
2022/06/08 13:25:41;;;;;;;4.70;2.80;;;23.80;99.90;;;;;;5034881;28;20275;-73